sensor_id;sensor_type;location;lat;lon;timestamp;temperature;humidity
83553;DHT22;73510;50.866;5.420;2024-01-15T00:00:15;2.60;67.80
83553;DHT22;73510;50.866;5.420;2024-01-15T00:02:41;2.60;67.80
83553;DHT22;73510;50.866;5.420;2024-01-15T00:05:07;2.50;67.70
83553;DHT22;73510;50.866;5.420;2024-01-15T00:07:33;2.60;67.70
83553;DHT22;73510;50.866;5.420;2024-01-15T00:09:59;2.70;67.70
83553;DHT22;73510;50.866;5.420;2024-01-15T00:12:24;2.70;67.60
83553;DHT22;73510;50.866;5.420;2024-01-15T00:14:50;2.60;67.70
83553;DHT22;73510;50.866;5.420;2024-01-15T00:17:17;2.70;67.70
83553;DHT22;73510;50.866;5.420;2024-01-15T00:19:42;2.70;67.50
83553;DHT22;73510;50.866;5.420;2024-01-15T00:22:08;2.70;67.60
83553;DHT22;73510;50.866;5.420;2024-01-15T00:24:34;2.70;67.50
83553;DHT22;73510;50.866;5.420;2024-01-15T00:27:00;2.70;67.50
83553;DHT22;73510;50.866;5.420;2024-01-15T00:29:25;2.70;67.50
83553;DHT22;73510;50.866;5.420;2024-01-15T00:31:51;2.70;67.50
83553;DHT22;73510;50.866;5.420;2024-01-15T00:34:17;2.70;67.60
83553;DHT22;73510;50.866;5.420;2024-01-15T00:36:42;2.70;67.60
83553;DHT22;73510;50.866;5.420;2024-01-15T00:39:08;2.70;67.50
83553;DHT22;73510;50.866;5.420;2024-01-15T00:41:36;2.80;67.30
83553;DHT22;73510;50.866;5.420;2024-01-15T00:44:01;2.70;67.70
83553;DHT22;73510;50.866;5.420;2024-01-15T00:46:28;2.70;68.00
83553;DHT22;73510;50.866;5.420;2024-01-15T00:48:54;2.70;68.50
83553;DHT22;73510;50.866;5.420;2024-01-15T00:51:20;2.70;69.10
83553;DHT22;73510;50.866;5.420;2024-01-15T00:53:45;2.60;69.50
83553;DHT22;73510;50.866;5.420;2024-01-15T00:56:11;2.60;69.80
83553;DHT22;73510;50.866;5.420;2024-01-15T00:58:37;2.50;70.30
83553;DHT22;73510;50.866;5.420;2024-01-15T01:01:03;2.50;70.40
83553;DHT22;73510;50.866;5.420;2024-01-15T01:03:29;2.50;70.60
83553;DHT22;73510;50.866;5.420;2024-01-15T01:05:55;2.50;70.70
83553;DHT22;73510;50.866;5.420;2024-01-15T01:08:21;2.50;70.80
83553;DHT22;73510;50.866;5.420;2024-01-15T01:10:47;2.40;70.80
83553;DHT22;73510;50.866;5.420;2024-01-15T01:13:12;2.50;70.90
83553;DHT22;73510;50.866;5.420;2024-01-15T01:15:38;2.50;70.70
83553;DHT22;73510;50.866;5.420;2024-01-15T01:18:04;2.50;70.50
83553;DHT22;73510;50.866;5.420;2024-01-15T01:20:30;2.50;70.50
83553;DHT22;73510;50.866;5.420;2024-01-15T01:22:56;2.40;70.60
83553;DHT22;73510;50.866;5.420;2024-01-15T01:25:21;2.40;70.70
83553;DHT22;73510;50.866;5.420;2024-01-15T01:27:47;2.40;70.50
83553;DHT22;73510;50.866;5.420;2024-01-15T01:30:13;2.40;70.40
83553;DHT22;73510;50.866;5.420;2024-01-15T01:32:38;2.40;70.50
83553;DHT22;73510;50.866;5.420;2024-01-15T01:35:04;2.40;70.50
83553;DHT22;73510;50.866;5.420;2024-01-15T01:37:30;2.40;70.30
83553;DHT22;73510;50.866;5.420;2024-01-15T01:39:56;2.50;70.20
83553;DHT22;73510;50.866;5.420;2024-01-15T01:42:21;2.40;70.40
83553;DHT22;73510;50.866;5.420;2024-01-15T01:44:47;2.40;70.60
83553;DHT22;73510;50.866;5.420;2024-01-15T01:47:13;2.40;70.40
83553;DHT22;73510;50.866;5.420;2024-01-15T01:49:40;2.40;70.40
83553;DHT22;73510;50.866;5.420;2024-01-15T01:52:07;2.40;70.40
83553;DHT22;73510;50.866;5.420;2024-01-15T01:54:35;2.40;70.30
83553;DHT22;73510;50.866;5.420;2024-01-15T01:57:03;2.40;70.50
83553;DHT22;73510;50.866;5.420;2024-01-15T01:59:30;2.40;70.50
83553;DHT22;73510;50.866;5.420;2024-01-15T02:01:57;2.40;70.40
83553;DHT22;73510;50.866;5.420;2024-01-15T02:04:24;2.50;70.40
83553;DHT22;73510;50.866;5.420;2024-01-15T02:06:50;2.50;70.30
83553;DHT22;73510;50.866;5.420;2024-01-15T02:09:20;2.50;70.30
83553;DHT22;73510;50.866;5.420;2024-01-15T02:11:48;2.50;70.30
83553;DHT22;73510;50.866;5.420;2024-01-15T02:14:15;2.50;70.50
83553;DHT22;73510;50.866;5.420;2024-01-15T02:16:41;2.50;70.50
83553;DHT22;73510;50.866;5.420;2024-01-15T02:19:07;2.50;70.40
83553;DHT22;73510;50.866;5.420;2024-01-15T02:21:33;2.50;70.70
83553;DHT22;73510;50.866;5.420;2024-01-15T02:23:59;2.50;70.70
83553;DHT22;73510;50.866;5.420;2024-01-15T02:26:26;2.50;70.70
83553;DHT22;73510;50.866;5.420;2024-01-15T02:28:52;2.50;70.50
83553;DHT22;73510;50.866;5.420;2024-01-15T02:31:17;2.60;70.50
83553;DHT22;73510;50.866;5.420;2024-01-15T02:33:44;2.60;70.70
83553;DHT22;73510;50.866;5.420;2024-01-15T02:36:11;2.60;70.70
83553;DHT22;73510;50.866;5.420;2024-01-15T02:38:37;2.50;70.70
83553;DHT22;73510;50.866;5.420;2024-01-15T02:41:03;2.60;70.70
83553;DHT22;73510;50.866;5.420;2024-01-15T02:43:29;2.60;70.80
83553;DHT22;73510;50.866;5.420;2024-01-15T02:45:55;2.60;70.80
83553;DHT22;73510;50.866;5.420;2024-01-15T02:48:20;2.60;71.00
83553;DHT22;73510;50.866;5.420;2024-01-15T02:50:46;2.60;70.90
83553;DHT22;73510;50.866;5.420;2024-01-15T02:53:12;2.60;71.10
83553;DHT22;73510;50.866;5.420;2024-01-15T02:55:37;2.60;71.00
83553;DHT22;73510;50.866;5.420;2024-01-15T02:58:04;2.50;71.10
83553;DHT22;73510;50.866;5.420;2024-01-15T03:00:30;2.60;71.10
83553;DHT22;73510;50.866;5.420;2024-01-15T03:02:56;2.60;71.10
83553;DHT22;73510;50.866;5.420;2024-01-15T03:05:22;2.70;71.10
83553;DHT22;73510;50.866;5.420;2024-01-15T03:07:47;2.70;71.20
83553;DHT22;73510;50.866;5.420;2024-01-15T03:10:13;2.60;71.10
83553;DHT22;73510;50.866;5.420;2024-01-15T03:12:39;2.60;71.00
83553;DHT22;73510;50.866;5.420;2024-01-15T03:15:05;2.60;70.90
83553;DHT22;73510;50.866;5.420;2024-01-15T03:17:31;2.70;71.00
83553;DHT22;73510;50.866;5.420;2024-01-15T03:19:56;2.60;71.00
83553;DHT22;73510;50.866;5.420;2024-01-15T03:22:22;2.60;71.10
83553;DHT22;73510;50.866;5.420;2024-01-15T03:24:48;2.60;70.90
83553;DHT22;73510;50.866;5.420;2024-01-15T03:27:13;2.60;71.00
83553;DHT22;73510;50.866;5.420;2024-01-15T03:29:41;2.60;70.90
83553;DHT22;73510;50.866;5.420;2024-01-15T03:32:06;2.60;70.80
83553;DHT22;73510;50.866;5.420;2024-01-15T03:34:32;2.70;70.70
83553;DHT22;73510;50.866;5.420;2024-01-15T03:36:59;2.60;71.00
83553;DHT22;73510;50.866;5.420;2024-01-15T03:39:25;2.60;71.00
83553;DHT22;73510;50.866;5.420;2024-01-15T03:41:50;2.60;70.80
83553;DHT22;73510;50.866;5.420;2024-01-15T03:44:16;2.60;70.70
83553;DHT22;73510;50.866;5.420;2024-01-15T03:46:42;2.60;70.70
83553;DHT22;73510;50.866;5.420;2024-01-15T03:49:08;2.50;70.70
83553;DHT22;73510;50.866;5.420;2024-01-15T03:51:34;2.50;70.70
83553;DHT22;73510;50.866;5.420;2024-01-15T03:53:59;2.50;70.70
83553;DHT22;73510;50.866;5.420;2024-01-15T03:56:25;2.50;70.80
83553;DHT22;73510;50.866;5.420;2024-01-15T03:58:51;2.40;70.80
83553;DHT22;73510;50.866;5.420;2024-01-15T04:01:16;2.50;70.90
83553;DHT22;73510;50.866;5.420;2024-01-15T04:03:42;2.40;71.00
83553;DHT22;73510;50.866;5.420;2024-01-15T04:06:08;2.50;70.90
83553;DHT22;73510;50.866;5.420;2024-01-15T04:08:33;2.40;71.00
83553;DHT22;73510;50.866;5.420;2024-01-15T04:10:59;2.50;70.90
83553;DHT22;73510;50.866;5.420;2024-01-15T04:13:25;2.40;71.10
83553;DHT22;73510;50.866;5.420;2024-01-15T04:15:51;2.40;71.00
83553;DHT22;73510;50.866;5.420;2024-01-15T04:18:17;2.40;71.10
83553;DHT22;73510;50.866;5.420;2024-01-15T04:20:43;2.40;71.20
83553;DHT22;73510;50.866;5.420;2024-01-15T04:23:09;2.40;71.40
83553;DHT22;73510;50.866;5.420;2024-01-15T04:25:35;2.50;71.30
83553;DHT22;73510;50.866;5.420;2024-01-15T04:28:01;2.50;71.30
83553;DHT22;73510;50.866;5.420;2024-01-15T04:30:26;2.50;71.20
83553;DHT22;73510;50.866;5.420;2024-01-15T04:32:52;2.50;71.10
83553;DHT22;73510;50.866;5.420;2024-01-15T04:35:18;2.50;70.80
83553;DHT22;73510;50.866;5.420;2024-01-15T04:37:43;2.40;71.10
83553;DHT22;73510;50.866;5.420;2024-01-15T04:40:09;2.40;71.20
83553;DHT22;73510;50.866;5.420;2024-01-15T04:42:35;2.40;71.40
83553;DHT22;73510;50.866;5.420;2024-01-15T04:45:01;2.40;71.40
83553;DHT22;73510;50.866;5.420;2024-01-15T04:47:26;2.40;71.50
83553;DHT22;73510;50.866;5.420;2024-01-15T04:49:52;2.40;71.40
83553;DHT22;73510;50.866;5.420;2024-01-15T04:52:18;2.40;71.30
83553;DHT22;73510;50.866;5.420;2024-01-15T04:54:44;2.40;71.20
83553;DHT22;73510;50.866;5.420;2024-01-15T04:57:10;2.40;71.10
83553;DHT22;73510;50.866;5.420;2024-01-15T04:59:36;2.30;71.10
83553;DHT22;73510;50.866;5.420;2024-01-15T05:02:02;2.30;71.10
83553;DHT22;73510;50.866;5.420;2024-01-15T05:04:27;2.30;71.20
83553;DHT22;73510;50.866;5.420;2024-01-15T05:06:54;2.30;71.20
83553;DHT22;73510;50.866;5.420;2024-01-15T05:09:20;2.30;71.20
83553;DHT22;73510;50.866;5.420;2024-01-15T05:11:46;2.30;71.40
83553;DHT22;73510;50.866;5.420;2024-01-15T05:14:11;2.30;71.30
83553;DHT22;73510;50.866;5.420;2024-01-15T05:16:46;2.30;71.20
83553;DHT22;73510;50.866;5.420;2024-01-15T05:19:13;2.30;71.20
83553;DHT22;73510;50.866;5.420;2024-01-15T05:21:38;2.30;71.20
83553;DHT22;73510;50.866;5.420;2024-01-15T05:24:04;2.30;71.30
83553;DHT22;73510;50.866;5.420;2024-01-15T05:26:30;2.30;71.40
83553;DHT22;73510;50.866;5.420;2024-01-15T05:28:56;2.40;71.30
83553;DHT22;73510;50.866;5.420;2024-01-15T05:31:22;2.40;71.10
83553;DHT22;73510;50.866;5.420;2024-01-15T05:33:47;2.40;71.10
83553;DHT22;73510;50.866;5.420;2024-01-15T05:36:13;2.50;70.90
83553;DHT22;73510;50.866;5.420;2024-01-15T05:38:39;2.50;70.80
83553;DHT22;73510;50.866;5.420;2024-01-15T05:41:05;2.50;70.40
83553;DHT22;73510;50.866;5.420;2024-01-15T05:43:31;2.40;70.40
83553;DHT22;73510;50.866;5.420;2024-01-15T05:45:57;2.40;70.50
83553;DHT22;73510;50.866;5.420;2024-01-15T05:48:23;2.30;70.30
83553;DHT22;73510;50.866;5.420;2024-01-15T05:50:49;2.20;70.60
83553;DHT22;73510;50.866;5.420;2024-01-15T05:53:15;2.20;70.80
83553;DHT22;73510;50.866;5.420;2024-01-15T05:55:40;2.20;70.50
83553;DHT22;73510;50.866;5.420;2024-01-15T05:58:06;2.10;70.70
83553;DHT22;73510;50.866;5.420;2024-01-15T06:00:32;2.10;70.70
83553;DHT22;73510;50.866;5.420;2024-01-15T06:03:01;2.00;70.90
83553;DHT22;73510;50.866;5.420;2024-01-15T06:05:27;2.00;70.90
83553;DHT22;73510;50.866;5.420;2024-01-15T06:07:53;2.00;71.00
83553;DHT22;73510;50.866;5.420;2024-01-15T06:10:18;1.90;71.10
83553;DHT22;73510;50.866;5.420;2024-01-15T06:12:44;1.90;71.10
83553;DHT22;73510;50.866;5.420;2024-01-15T06:15:10;1.90;71.40
83553;DHT22;73510;50.866;5.420;2024-01-15T06:17:37;1.90;71.20
83553;DHT22;73510;50.866;5.420;2024-01-15T06:20:03;1.90;71.40
83553;DHT22;73510;50.866;5.420;2024-01-15T06:22:29;1.90;71.50
83553;DHT22;73510;50.866;5.420;2024-01-15T06:24:55;2.00;71.20
83553;DHT22;73510;50.866;5.420;2024-01-15T06:27:21;1.90;71.20
83553;DHT22;73510;50.866;5.420;2024-01-15T06:29:47;1.90;71.30
83553;DHT22;73510;50.866;5.420;2024-01-15T06:32:13;1.90;71.20
83553;DHT22;73510;50.866;5.420;2024-01-15T06:34:38;1.90;71.30
83553;DHT22;73510;50.866;5.420;2024-01-15T06:37:04;1.90;71.10
83553;DHT22;73510;50.866;5.420;2024-01-15T06:39:30;1.80;71.10
83553;DHT22;73510;50.866;5.420;2024-01-15T06:41:56;1.80;71.20
83553;DHT22;73510;50.866;5.420;2024-01-15T06:44:21;1.80;71.30
83553;DHT22;73510;50.866;5.420;2024-01-15T06:46:47;1.70;71.20
83553;DHT22;73510;50.866;5.420;2024-01-15T06:49:13;1.70;71.30
83553;DHT22;73510;50.866;5.420;2024-01-15T06:51:39;1.70;71.30
83553;DHT22;73510;50.866;5.420;2024-01-15T06:54:05;1.60;71.60
83553;DHT22;73510;50.866;5.420;2024-01-15T06:56:31;1.70;71.70
83553;DHT22;73510;50.866;5.420;2024-01-15T06:58:58;1.70;71.90
83553;DHT22;73510;50.866;5.420;2024-01-15T07:01:24;1.70;72.00
83553;DHT22;73510;50.866;5.420;2024-01-15T07:03:49;1.80;72.00
83553;DHT22;73510;50.866;5.420;2024-01-15T07:06:15;1.80;72.10
83553;DHT22;73510;50.866;5.420;2024-01-15T07:08:42;1.80;72.10
83553;DHT22;73510;50.866;5.420;2024-01-15T07:11:08;1.90;72.00
83553;DHT22;73510;50.866;5.420;2024-01-15T07:13:35;2.00;71.90
83553;DHT22;73510;50.866;5.420;2024-01-15T07:16:01;2.00;71.80
83553;DHT22;73510;50.866;5.420;2024-01-15T07:18:27;2.00;71.80
83553;DHT22;73510;50.866;5.420;2024-01-15T07:20:52;2.00;71.70
83553;DHT22;73510;50.866;5.420;2024-01-15T07:23:18;2.00;71.60
83553;DHT22;73510;50.866;5.420;2024-01-15T07:25:44;2.00;71.60
83553;DHT22;73510;50.866;5.420;2024-01-15T07:28:10;2.00;71.80
83553;DHT22;73510;50.866;5.420;2024-01-15T07:30:35;2.00;71.80
83553;DHT22;73510;50.866;5.420;2024-01-15T07:33:04;2.00;71.80
83553;DHT22;73510;50.866;5.420;2024-01-15T07:35:30;2.00;71.90
83553;DHT22;73510;50.866;5.420;2024-01-15T07:37:55;2.10;71.90
83553;DHT22;73510;50.866;5.420;2024-01-15T07:40:21;2.10;71.70
83553;DHT22;73510;50.866;5.420;2024-01-15T07:42:47;2.20;71.40
83553;DHT22;73510;50.866;5.420;2024-01-15T07:45:13;2.20;71.40
83553;DHT22;73510;50.866;5.420;2024-01-15T07:47:39;2.20;71.30
83553;DHT22;73510;50.866;5.420;2024-01-15T07:50:05;2.20;71.30
83553;DHT22;73510;50.866;5.420;2024-01-15T07:52:31;2.30;71.00
83553;DHT22;73510;50.866;5.420;2024-01-15T07:54:57;2.30;71.00
83553;DHT22;73510;50.866;5.420;2024-01-15T07:57:26;2.30;70.90
83553;DHT22;73510;50.866;5.420;2024-01-15T07:59:51;2.40;70.80
83553;DHT22;73510;50.866;5.420;2024-01-15T08:02:17;2.40;70.60
83553;DHT22;73510;50.866;5.420;2024-01-15T08:04:43;2.40;70.50
83553;DHT22;73510;50.866;5.420;2024-01-15T08:07:09;2.40;70.30
83553;DHT22;73510;50.866;5.420;2024-01-15T08:09:35;2.50;70.00
83553;DHT22;73510;50.866;5.420;2024-01-15T08:12:01;2.50;70.00
83553;DHT22;73510;50.866;5.420;2024-01-15T08:14:27;2.50;69.90
83553;DHT22;73510;50.866;5.420;2024-01-15T08:16:52;2.50;69.70
83553;DHT22;73510;50.866;5.420;2024-01-15T08:19:18;2.50;69.60
83553;DHT22;73510;50.866;5.420;2024-01-15T08:21:45;2.60;69.50
83553;DHT22;73510;50.866;5.420;2024-01-15T08:24:11;2.70;69.40
83553;DHT22;73510;50.866;5.420;2024-01-15T08:26:37;2.70;69.30
83553;DHT22;73510;50.866;5.420;2024-01-15T08:29:03;2.70;69.10
83553;DHT22;73510;50.866;5.420;2024-01-15T08:31:29;2.80;68.90
83553;DHT22;73510;50.866;5.420;2024-01-15T08:33:54;2.80;69.00
83553;DHT22;73510;50.866;5.420;2024-01-15T08:36:21;2.80;69.00
83553;DHT22;73510;50.866;5.420;2024-01-15T08:38:47;2.80;68.80
83553;DHT22;73510;50.866;5.420;2024-01-15T08:41:13;2.90;68.70
83553;DHT22;73510;50.866;5.420;2024-01-15T08:43:39;2.90;68.80
83553;DHT22;73510;50.866;5.420;2024-01-15T08:46:05;2.80;68.90
83553;DHT22;73510;50.866;5.420;2024-01-15T08:48:30;2.80;68.80
83553;DHT22;73510;50.866;5.420;2024-01-15T08:50:56;2.90;68.90
83553;DHT22;73510;50.866;5.420;2024-01-15T08:53:22;2.90;68.70
83553;DHT22;73510;50.866;5.420;2024-01-15T08:55:48;2.90;68.90
83553;DHT22;73510;50.866;5.420;2024-01-15T08:58:15;2.90;68.90
83553;DHT22;73510;50.866;5.420;2024-01-15T09:00:41;2.90;69.00
83553;DHT22;73510;50.866;5.420;2024-01-15T09:03:06;2.90;68.90
83553;DHT22;73510;50.866;5.420;2024-01-15T09:05:34;2.90;69.00
83553;DHT22;73510;50.866;5.420;2024-01-15T09:08:00;3.00;69.10
83553;DHT22;73510;50.866;5.420;2024-01-15T09:10:26;3.00;69.00
83553;DHT22;73510;50.866;5.420;2024-01-15T09:12:52;3.00;68.90
83553;DHT22;73510;50.866;5.420;2024-01-15T09:15:19;3.00;69.00
83553;DHT22;73510;50.866;5.420;2024-01-15T09:17:45;3.10;68.70
83553;DHT22;73510;50.866;5.420;2024-01-15T09:20:11;3.10;68.60
83553;DHT22;73510;50.866;5.420;2024-01-15T09:22:40;3.10;68.50
83553;DHT22;73510;50.866;5.420;2024-01-15T09:25:10;3.10;68.50
83553;DHT22;73510;50.866;5.420;2024-01-15T09:27:36;3.20;68.20
83553;DHT22;73510;50.866;5.420;2024-01-15T09:30:03;3.20;68.20
83553;DHT22;73510;50.866;5.420;2024-01-15T09:32:29;3.20;68.20
83553;DHT22;73510;50.866;5.420;2024-01-15T09:34:54;3.20;68.00
83553;DHT22;73510;50.866;5.420;2024-01-15T09:37:21;3.20;68.00
83553;DHT22;73510;50.866;5.420;2024-01-15T09:39:47;3.20;68.10
83553;DHT22;73510;50.866;5.420;2024-01-15T09:42:14;3.10;68.00
83553;DHT22;73510;50.866;5.420;2024-01-15T09:44:41;3.20;68.00
83553;DHT22;73510;50.866;5.420;2024-01-15T09:47:07;3.20;68.00
83553;DHT22;73510;50.866;5.420;2024-01-15T09:49:33;3.10;68.00
83553;DHT22;73510;50.866;5.420;2024-01-15T09:51:59;3.20;68.00
83553;DHT22;73510;50.866;5.420;2024-01-15T09:54:27;3.20;68.00
83553;DHT22;73510;50.866;5.420;2024-01-15T09:56:54;3.30;67.90
83553;DHT22;73510;50.866;5.420;2024-01-15T09:59:20;3.30;67.90
83553;DHT22;73510;50.866;5.420;2024-01-15T10:01:47;3.30;67.80
83553;DHT22;73510;50.866;5.420;2024-01-15T10:04:15;3.30;67.50
83553;DHT22;73510;50.866;5.420;2024-01-15T10:06:47;3.50;67.50
83553;DHT22;73510;50.866;5.420;2024-01-15T10:09:16;3.50;67.30
83553;DHT22;73510;50.866;5.420;2024-01-15T10:11:44;3.60;67.20
83553;DHT22;73510;50.866;5.420;2024-01-15T10:14:11;3.60;66.70
83553;DHT22;73510;50.866;5.420;2024-01-15T10:16:40;3.60;66.80
83553;DHT22;73510;50.866;5.420;2024-01-15T10:19:07;3.70;66.70
83553;DHT22;73510;50.866;5.420;2024-01-15T10:21:34;3.90;66.40
83553;DHT22;73510;50.866;5.420;2024-01-15T10:24:03;3.90;66.10
83553;DHT22;73510;50.866;5.420;2024-01-15T10:26:30;4.00;65.80
83553;DHT22;73510;50.866;5.420;2024-01-15T10:28:57;4.10;66.00
83553;DHT22;73510;50.866;5.420;2024-01-15T10:31:23;4.20;65.60
83553;DHT22;73510;50.866;5.420;2024-01-15T10:33:49;4.20;65.10
83553;DHT22;73510;50.866;5.420;2024-01-15T10:36:16;4.20;65.30
83553;DHT22;73510;50.866;5.420;2024-01-15T10:38:45;4.20;65.00
83553;DHT22;73510;50.866;5.420;2024-01-15T10:41:12;4.30;65.00
83553;DHT22;73510;50.866;5.420;2024-01-15T10:43:38;4.40;64.70
83553;DHT22;73510;50.866;5.420;2024-01-15T10:46:04;4.50;64.70
83553;DHT22;73510;50.866;5.420;2024-01-15T10:48:30;4.50;64.20
83553;DHT22;73510;50.866;5.420;2024-01-15T10:50:57;4.40;64.10
83553;DHT22;73510;50.866;5.420;2024-01-15T10:53:23;4.40;64.00
83553;DHT22;73510;50.866;5.420;2024-01-15T10:55:50;4.50;63.90
83553;DHT22;73510;50.866;5.420;2024-01-15T10:58:18;4.50;63.80
83553;DHT22;73510;50.866;5.420;2024-01-15T11:00:44;4.50;63.50
83553;DHT22;73510;50.866;5.420;2024-01-15T11:03:10;4.50;63.00
83553;DHT22;73510;50.866;5.420;2024-01-15T11:05:43;4.60;63.80
83553;DHT22;73510;50.866;5.420;2024-01-15T11:08:09;4.60;63.70
83553;DHT22;73510;50.866;5.420;2024-01-15T11:18:30;4.60;62.60
83553;DHT22;73510;50.866;5.420;2024-01-15T11:23:51;4.50;62.50
83553;DHT22;73510;50.866;5.420;2024-01-15T11:26:45;4.50;62.70
83553;DHT22;73510;50.866;5.420;2024-01-15T11:29:32;4.50;62.60
83553;DHT22;73510;50.866;5.420;2024-01-15T11:32:09;4.70;62.60
83553;DHT22;73510;50.866;5.420;2024-01-15T11:37:23;5.00;62.20
83553;DHT22;73510;50.866;5.420;2024-01-15T11:39:51;5.10;60.50
83553;DHT22;73510;50.866;5.420;2024-01-15T11:42:17;5.00;60.50
83553;DHT22;73510;50.866;5.420;2024-01-15T11:44:45;5.10;60.20
83553;DHT22;73510;50.866;5.420;2024-01-15T11:47:12;5.00;60.00
83553;DHT22;73510;50.866;5.420;2024-01-15T11:50:03;5.00;60.30
83553;DHT22;73510;50.866;5.420;2024-01-15T11:52:36;4.90;60.10
83553;DHT22;73510;50.866;5.420;2024-01-15T11:57:50;4.70;61.90
83553;DHT22;73510;50.866;5.420;2024-01-15T12:00:16;4.70;62.20
83553;DHT22;73510;50.866;5.420;2024-01-15T12:02:43;4.60;62.60
83553;DHT22;73510;50.866;5.420;2024-01-15T12:05:10;4.40;65.50
83553;DHT22;73510;50.866;5.420;2024-01-15T12:07:39;4.30;66.20
83553;DHT22;73510;50.866;5.420;2024-01-15T12:10:09;4.10;66.40
83553;DHT22;73510;50.866;5.420;2024-01-15T12:15:10;3.90;67.30
83553;DHT22;73510;50.866;5.420;2024-01-15T12:17:35;3.90;67.80
83553;DHT22;73510;50.866;5.420;2024-01-15T12:20:07;3.80;67.90
83553;DHT22;73510;50.866;5.420;2024-01-15T12:22:33;3.80;68.10
83553;DHT22;73510;50.866;5.420;2024-01-15T12:25:00;3.80;68.20
83553;DHT22;73510;50.866;5.420;2024-01-15T12:27:25;3.70;68.40
83553;DHT22;73510;50.866;5.420;2024-01-15T12:29:53;3.70;68.70
83553;DHT22;73510;50.866;5.420;2024-01-15T12:32:19;3.60;68.90
83553;DHT22;73510;50.866;5.420;2024-01-15T12:34:44;3.60;69.00
83553;DHT22;73510;50.866;5.420;2024-01-15T12:37:11;3.60;69.00
83553;DHT22;73510;50.866;5.420;2024-01-15T12:39:37;3.60;69.00
83553;DHT22;73510;50.866;5.420;2024-01-15T12:42:03;3.60;69.00
83553;DHT22;73510;50.866;5.420;2024-01-15T12:44:31;3.50;69.10
83553;DHT22;73510;50.866;5.420;2024-01-15T12:46:57;3.50;69.10
83553;DHT22;73510;50.866;5.420;2024-01-15T12:49:24;3.50;69.10
83553;DHT22;73510;50.866;5.420;2024-01-15T12:51:59;3.30;69.40
83553;DHT22;73510;50.866;5.420;2024-01-15T12:54:25;3.30;69.70
83553;DHT22;73510;50.866;5.420;2024-01-15T12:56:52;3.30;69.80
83553;DHT22;73510;50.866;5.420;2024-01-15T12:59:18;3.30;69.50
83553;DHT22;73510;50.866;5.420;2024-01-15T13:01:45;3.40;69.60
83553;DHT22;73510;50.866;5.420;2024-01-15T13:04:12;3.40;69.80
83553;DHT22;73510;50.866;5.420;2024-01-15T13:06:46;3.40;69.60
83553;DHT22;73510;50.866;5.420;2024-01-15T13:09:12;3.30;70.20
83553;DHT22;73510;50.866;5.420;2024-01-15T13:11:38;3.30;70.00
83553;DHT22;73510;50.866;5.420;2024-01-15T13:14:03;3.40;69.90
83553;DHT22;73510;50.866;5.420;2024-01-15T13:16:29;3.40;69.80
83553;DHT22;73510;50.866;5.420;2024-01-15T13:18:55;3.40;70.00
83553;DHT22;73510;50.866;5.420;2024-01-15T13:21:22;3.30;70.20
83553;DHT22;73510;50.866;5.420;2024-01-15T13:23:48;3.30;70.40
83553;DHT22;73510;50.866;5.420;2024-01-15T13:26:13;3.30;70.50
83553;DHT22;73510;50.866;5.420;2024-01-15T13:28:39;3.30;70.30
83553;DHT22;73510;50.866;5.420;2024-01-15T13:31:05;3.30;70.20
83553;DHT22;73510;50.866;5.420;2024-01-15T13:33:31;3.30;70.10
83553;DHT22;73510;50.866;5.420;2024-01-15T13:35:56;3.30;70.20
83553;DHT22;73510;50.866;5.420;2024-01-15T13:38:23;3.30;70.00
83553;DHT22;73510;50.866;5.420;2024-01-15T13:40:49;3.30;70.20
83553;DHT22;73510;50.866;5.420;2024-01-15T13:43:15;3.30;70.40
83553;DHT22;73510;50.866;5.420;2024-01-15T13:45:42;3.50;70.10
83553;DHT22;73510;50.866;5.420;2024-01-15T13:48:07;3.50;70.20
83553;DHT22;73510;50.866;5.420;2024-01-15T13:50:34;3.50;69.90
83553;DHT22;73510;50.866;5.420;2024-01-15T13:53:02;3.50;70.10
83553;DHT22;73510;50.866;5.420;2024-01-15T13:55:29;3.50;70.20
83553;DHT22;73510;50.866;5.420;2024-01-15T13:57:55;3.50;69.90
83553;DHT22;73510;50.866;5.420;2024-01-15T14:00:20;3.60;70.20
83553;DHT22;73510;50.866;5.420;2024-01-15T14:02:47;3.60;70.20
83553;DHT22;73510;50.866;5.420;2024-01-15T14:05:13;3.60;70.30
83553;DHT22;73510;50.866;5.420;2024-01-15T14:07:39;3.60;70.20
83553;DHT22;73510;50.866;5.420;2024-01-15T14:10:06;3.60;69.90
83553;DHT22;73510;50.866;5.420;2024-01-15T14:12:33;3.50;69.90
83553;DHT22;73510;50.866;5.420;2024-01-15T14:15:00;3.50;70.00
83553;DHT22;73510;50.866;5.420;2024-01-15T14:17:27;3.50;70.00
83553;DHT22;73510;50.866;5.420;2024-01-15T14:19:53;3.50;70.20
83553;DHT22;73510;50.866;5.420;2024-01-15T14:22:19;3.50;69.70
83553;DHT22;73510;50.866;5.420;2024-01-15T14:24:45;3.50;70.00
83553;DHT22;73510;50.866;5.420;2024-01-15T14:27:11;3.50;69.90
83553;DHT22;73510;50.866;5.420;2024-01-15T14:29:36;3.50;69.90
83553;DHT22;73510;50.866;5.420;2024-01-15T14:32:02;3.50;70.00
83553;DHT22;73510;50.866;5.420;2024-01-15T14:34:28;3.40;69.90
83553;DHT22;73510;50.866;5.420;2024-01-15T14:36:54;3.30;69.80
83553;DHT22;73510;50.866;5.420;2024-01-15T14:39:21;3.30;70.10
83553;DHT22;73510;50.866;5.420;2024-01-15T14:41:47;3.30;70.10
83553;DHT22;73510;50.866;5.420;2024-01-15T14:44:13;3.30;70.00
83553;DHT22;73510;50.866;5.420;2024-01-15T14:46:39;3.30;70.00
83553;DHT22;73510;50.866;5.420;2024-01-15T14:49:05;3.30;70.20
83553;DHT22;73510;50.866;5.420;2024-01-15T14:51:31;3.30;70.20
83553;DHT22;73510;50.866;5.420;2024-01-15T14:53:56;3.30;70.00
83553;DHT22;73510;50.866;5.420;2024-01-15T14:56:22;3.20;69.90
83553;DHT22;73510;50.866;5.420;2024-01-15T14:58:48;3.20;70.00
83553;DHT22;73510;50.866;5.420;2024-01-15T15:01:14;3.10;69.90
83553;DHT22;73510;50.866;5.420;2024-01-15T15:03:40;3.10;69.90
83553;DHT22;73510;50.866;5.420;2024-01-15T15:06:06;3.00;70.30
83553;DHT22;73510;50.866;5.420;2024-01-15T15:08:36;2.90;70.30
83553;DHT22;73510;50.866;5.420;2024-01-15T15:11:03;2.90;70.40
83553;DHT22;73510;50.866;5.420;2024-01-15T15:13:29;2.90;70.20
83553;DHT22;73510;50.866;5.420;2024-01-15T15:15:55;2.90;70.50
83553;DHT22;73510;50.866;5.420;2024-01-15T15:18:21;3.00;70.40
83553;DHT22;73510;50.866;5.420;2024-01-15T15:20:47;3.00;70.40
83553;DHT22;73510;50.866;5.420;2024-01-15T15:23:13;3.00;70.40
83553;DHT22;73510;50.866;5.420;2024-01-15T15:25:39;3.00;70.30
83553;DHT22;73510;50.866;5.420;2024-01-15T15:28:05;3.10;70.20
83553;DHT22;73510;50.866;5.420;2024-01-15T15:30:31;3.10;70.30
83553;DHT22;73510;50.866;5.420;2024-01-15T15:32:57;3.10;70.30
83553;DHT22;73510;50.866;5.420;2024-01-15T15:35:23;3.00;70.20
83553;DHT22;73510;50.866;5.420;2024-01-15T15:37:49;3.10;70.30
83553;DHT22;73510;50.866;5.420;2024-01-15T15:40:15;3.00;70.30
83553;DHT22;73510;50.866;5.420;2024-01-15T15:42:41;3.00;70.30
83553;DHT22;73510;50.866;5.420;2024-01-15T15:45:07;3.00;70.20
83553;DHT22;73510;50.866;5.420;2024-01-15T15:47:35;3.00;70.40
83553;DHT22;73510;50.866;5.420;2024-01-15T15:50:00;3.00;70.50
83553;DHT22;73510;50.866;5.420;2024-01-15T15:52:26;2.90;70.70
83553;DHT22;73510;50.866;5.420;2024-01-15T15:54:52;2.80;71.00
83553;DHT22;73510;50.866;5.420;2024-01-15T15:57:18;2.80;71.00